Aeroporto :
LOGIN :

Iscrizione | Disclaimer

   EN    FR    IT 

 










Sommario :    VFR   VFR Marginale   IFR   IFR Intensivo   IFR Molto Intensivo
Visibilità : 
Base nubi : 
>= 8 km
>= 3000ft
5 / 8 km
1000 / 3000 ft
1500m / 5 km
500 / 1000 ft
800 / 1500m
200 / 500 ft
< 800m
< 200 ft
Simboli :   Temporali  Nebbia  Neve Forte  Precipitazioni Forti  Vento > 20 kt
SIGMETs :   Varie  Temporali  Ghiacco  Turbolenza  Onda orograficha  Ceneri Vulcaniche







- Altitudine del aeroporto : 26 ft
- Codice IATA : BIA
- Carte del aeroporto


LFKB - Bastia

ULTIMO METAR :
  • 210230Z AUTO VRB02KT CAVOK 12/10 Q1020 NOSIG

METARs OBSOLETI :
  • 210200Z AUTO VRB01KT CAVOK 13/10 Q1020 NOSIG
  • 210130Z AUTO 00000KT CAVOK 13/10 Q1020 NOSIG
  • 210100Z AUTO 24001KT CAVOK 13/11 Q1021 NOSIG
  • 210030Z AUTO 26001KT CAVOK 14/10 Q1021 NOSIG
  • 210000Z AUTO VRB02KT CAVOK 13/10 Q1021 NOSIG

TAF TAF LFKB
Valido dal 21 a 03 ore il 22 a 03 ore UTC


210200Z 2103/2203 22005KT CAVOK TX20/2112Z TN12/2103Z
BECMG 2108/2110 13015G25KT
BECMG 2120/2121 22006KT
ATIS : +33 4 95 59 19 40
Nessun NOTAM noto per questo aeroporto.
3 SIGMETs conosciuti per la FIR Marseille (LFMM) :
 
Temporali affogati
LFMM SIGMET 3 VALID 202300/210300 LFPW
LFMM MARSEILLE FIR/UIR EMBD TS FCST S OF N3945 AND W OF E00515 TOP FL280 MOV NE 15KT NC=
Turbolenza severa
LFMM SIGMET 2 VALID 202230/210230 LFPW
LFMM MARSEILLE FIR/UIR SEV TURB FCST E OF LINE N4330 E00845 - N4115 E00815 SFC/FL080 STNR NC=
Turbolenza severa
LFMM SIGMET 1 VALID 210230/210600 LFPW
LFMM MARSEILLE FIR/UIR SEV TURB FCST WI N4300 E00945 - N4115 E00945 - N4115 E00800 - N3900 E00800 - N3900 E00700 - N4315 E00530 - N4345 E00715 - N4300 E00945 SFC/FL080 STNR NC=



MetMap, La meteo Aeronautica in un colpo d'occhio ! - Copyright ORBIFLY Dicembre 2007 - Disclaimer

ORBIFLY MET'MAP TEAM :

Programmazione e sviluppo : Alexandra Zaïnal
Concezione e sviluppo : Baudouin d'Aumeries
Co-Programmazione e sviluppo : Marc-Olivier Méhu
Supporto tecnico e logistico : Manuel Goepfert
Aiuto per la traduzione : Arnaldo La Scala

Contatto : metmap@orbifly.com




FONTI E CREDITI :

   NOAA